createdAt,value
2023-01-19T00:01:57.972Z,99901.13
2023-01-19T00:04:27.881Z,99904.88
2023-01-19T00:06:59.407Z,99891.53
2023-01-19T00:09:38.397Z,99890.75
2023-01-19T00:12:16.277Z,99885.63
2023-01-19T00:14:46.513Z,99905.47
2023-01-19T00:17:18.582Z,99926.59
2023-01-19T00:19:49.729Z,99926.31
2023-01-19T00:22:19.716Z,99924.16
2023-01-19T00:24:55.270Z,99912.91
2023-01-19T00:27:25.129Z,99913.91
2023-01-19T00:29:57.061Z,99918.22
2023-01-19T00:32:31.910Z,99904.81
2023-01-19T00:35:01.743Z,99915.53
2023-01-19T00:37:31.868Z,99917.69
2023-01-19T00:40:06.941Z,99913.41
2023-01-19T00:42:52.034Z,99910.72
2023-01-19T00:45:24.969Z,99907.53
2023-01-19T00:47:57.369Z,99917.78
2023-01-19T00:50:31.131Z,99919.06
2023-01-19T00:53:03.938Z,99917.78
2023-01-19T00:55:36.742Z,99927.41
2023-01-19T00:58:07.341Z,99917.47
2023-01-19T01:00:45.094Z,99916.97
2023-01-19T01:03:17.116Z,99923.91
2023-01-19T01:05:46.952Z,99924.72
2023-01-19T01:08:16.692Z,99922.31
2023-01-19T01:10:49.146Z,99915.63
2023-01-19T01:13:29.307Z,99918.06
2023-01-19T01:16:02.580Z,99917.78
2023-01-19T01:18:32.517Z,99912.97
2023-01-19T01:21:05.302Z,99919.94
2023-01-19T01:23:35.502Z,99926.09
2023-01-19T01:26:08.592Z,99925.28
2023-01-19T01:28:38.285Z,99926.03
2023-01-19T01:31:09.313Z,99931.13
2023-01-19T01:33:41.177Z,99925.22
2023-01-19T01:36:14.476Z,99925.19
2023-01-19T01:38:45.056Z,99915.28
2023-01-19T01:41:21.132Z,99935.59
2023-01-19T01:43:56.662Z,99910.41
2023-01-19T01:46:27.211Z,99923.22
2023-01-19T01:49:04.812Z,99920.28
2023-01-19T01:51:37.994Z,99928.34
2023-01-19T01:54:16.396Z,99917.06
2023-01-19T01:56:52.085Z,99926.19
2023-01-19T01:59:29.448Z,99917.88
2023-01-19T02:02:15.587Z,99919.50
2023-01-19T02:04:57.975Z,99917.59
2023-01-19T02:07:48.768Z,99922.97
2023-01-19T02:10:39.299Z,99918.94
2023-01-19T02:13:20.697Z,99905.81
2023-01-19T02:15:52.798Z,99913.03
2023-01-19T02:18:25.389Z,99903.13
2023-01-19T02:21:05.672Z,99917.59
2023-01-19T02:23:53.614Z,99910.13
2023-01-19T02:26:28.075Z,99909.31
2023-01-19T02:29:02.091Z,99906.88
2023-01-19T02:31:34.017Z,99904.72
2023-01-19T02:34:05.611Z,99903.13
2023-01-19T02:36:42.295Z,99900.66
2023-01-19T02:39:19.660Z,99896.19
2023-01-19T02:41:54.338Z,99903.34
2023-01-19T02:44:28.542Z,99909.50
2023-01-19T02:46:58.394Z,99902.84
2023-01-19T02:49:34.138Z,99903.13
2023-01-19T02:52:04.418Z,99896.19
2023-01-19T02:54:54.320Z,99895.59
2023-01-19T02:57:45.088Z,99896.41
2023-01-19T03:00:25.112Z,99904.09
2023-01-19T03:03:07.308Z,99904.41
2023-01-19T03:05:53.738Z,99899.25
2023-01-19T03:08:34.081Z,99909.97
2023-01-19T03:11:09.184Z,99907.38
2023-01-19T03:13:48.027Z,99906.78
2023-01-19T03:16:24.216Z,99908.97
2023-01-19T03:18:57.646Z,99895.28
2023-01-19T03:21:36.336Z,99896.66
2023-01-19T03:24:11.219Z,99893.97
2023-01-19T03:26:47.398Z,99903.34
2023-01-19T03:29:18.559Z,99905.78
2023-01-19T03:31:50.847Z,99892.88
2023-01-19T03:34:24.686Z,99900.41
2023-01-19T03:36:57.556Z,99899.53
2023-01-19T03:39:31.963Z,99899.84
2023-01-19T03:42:09.353Z,99907.88
2023-01-19T03:44:46.072Z,99906.78
2023-01-19T03:47:23.288Z,99906.00
2023-01-19T03:49:56.145Z,99904.63
2023-01-19T03:52:33.681Z,99909.19
2023-01-19T03:55:04.530Z,99910.78
2023-01-19T03:57:36.887Z,99915.91
2023-01-19T04:00:07.937Z,99908.44
2023-01-19T04:02:37.835Z,99909.50
2023-01-19T04:05:10.582Z,99904.72
2023-01-19T04:07:40.381Z,99902.56
2023-01-19T04:10:13.040Z,99908.69
2023-01-19T04:12:53.358Z,99890.81
2023-01-19T04:15:23.128Z,99889.69
2023-01-19T04:17:55.074Z,99887.53
2023-01-19T04:20:24.947Z,99890.72
2023-01-19T04:22:55.065Z,99882.69
2023-01-19T04:25:24.753Z,99884.34
2023-01-19T04:27:58.418Z,99889.69
2023-01-19T04:30:28.742Z,99889.94
2023-01-19T04:32:58.976Z,99889.22
2023-01-19T04:35:28.888Z,99890.81
2023-01-19T04:37:58.641Z,99894.59
2023-01-19T04:40:28.314Z,99894.84
2023-01-19T04:43:01.062Z,99892.75
2023-01-19T04:45:31.075Z,99892.50
2023-01-19T04:48:00.814Z,99901.28
2023-01-19T04:50:30.723Z,99907.44
2023-01-19T04:53:00.885Z,99902.66
2023-01-19T04:55:30.994Z,99897.84
2023-01-19T04:58:03.820Z,99897.84
2023-01-19T05:00:33.897Z,99907.75
2023-01-19T05:03:05.032Z,99912.31
2023-01-19T05:05:35.829Z,99906.16
2023-01-19T05:08:05.748Z,99908.34
2023-01-19T05:10:36.658Z,99912.38
2023-01-19T05:13:08.911Z,99920.94
2023-01-19T05:15:39.190Z,99926.81
2023-01-19T05:18:09.147Z,99926.31
2023-01-19T05:20:39.669Z,99929.78
2023-01-19T05:23:09.685Z,99927.41
2023-01-19T05:25:39.375Z,99933.84
2023-01-19T05:28:11.963Z,99940.28
2023-01-19T05:30:41.790Z,99940.56
2023-01-19T05:33:11.552Z,99938.13
2023-01-19T05:35:41.338Z,99938.09
2023-01-19T05:38:11.314Z,99930.34
2023-01-19T05:40:41.247Z,99943.47
2023-01-19T05:43:13.666Z,99939.69
2023-01-19T05:45:44.046Z,99943.97
2023-01-19T05:48:14.081Z,99945.56
2023-01-19T05:50:44.016Z,99949.34
2023-01-19T05:53:13.706Z,99945.63
2023-01-19T05:55:43.418Z,99947.72
2023-01-19T05:58:15.811Z,99953.09
2023-01-19T06:00:45.821Z,99948.31
2023-01-19T06:03:15.667Z,99947.25
2023-01-19T06:05:45.430Z,99949.09
2023-01-19T06:08:15.199Z,99946.72
2023-01-19T06:10:45.185Z,99942.94
2023-01-19T06:13:17.670Z,99944.06
2023-01-19T06:15:48.676Z,99957.97
2023-01-19T06:18:18.594Z,99959.31
2023-01-19T06:20:49.597Z,99972.94
2023-01-19T06:23:21.095Z,99970.00
2023-01-19T06:25:53.025Z,99962.78
2023-01-19T06:28:25.682Z,99980.44
2023-01-19T06:30:57.410Z,99984.72
2023-01-19T06:33:28.111Z,99986.34
2023-01-19T06:35:59.018Z,99986.91
2023-01-19T06:38:29.034Z,99995.44
2023-01-19T06:41:03.418Z,99992.75
2023-01-19T06:43:36.117Z,99987.69
2023-01-19T06:46:06.001Z,99997.03
2023-01-19T06:48:36.030Z,99990.09
2023-01-19T06:51:06.071Z,99999.22
2023-01-19T06:53:36.218Z,100002.97
2023-01-19T06:56:06.832Z,99999.72
2023-01-19T06:58:39.469Z,100008.81
2023-01-19T07:01:10.033Z,100010.91
2023-01-19T07:03:40.220Z,100013.59
2023-01-19T07:06:10.474Z,100041.44
2023-01-19T07:08:40.654Z,100024.78
2023-01-19T07:11:26.218Z,100029.34
2023-01-19T07:14:04.145Z,100035.00
2023-01-19T07:16:33.958Z,100044.63
2023-01-19T07:19:03.766Z,100045.41
2023-01-19T07:21:35.541Z,100048.38
2023-01-19T07:24:05.276Z,100051.56
2023-01-19T07:26:35.105Z,100056.13
2023-01-19T07:29:07.448Z,100059.91
2023-01-19T07:31:37.400Z,100062.84
2023-01-19T07:34:07.540Z,100064.97
2023-01-19T07:36:37.398Z,100062.28
2023-01-19T07:39:07.720Z,100066.56
2023-01-19T07:41:37.605Z,100067.09
2023-01-19T07:44:10.679Z,100067.66
2023-01-19T07:46:40.755Z,100073.00
2023-01-19T07:49:11.682Z,100083.72
2023-01-19T07:51:41.449Z,100080.53
2023-01-19T07:54:11.341Z,100086.94
2023-01-19T07:56:41.178Z,100083.72
2023-01-19T07:59:13.888Z,100084.50
2023-01-19T08:01:43.958Z,100095.50
2023-01-19T08:04:13.905Z,100111.56
2023-01-19T08:06:47.559Z,100111.00
2023-01-19T08:09:17.953Z,100114.22
2023-01-19T08:11:48.134Z,100120.63
2023-01-19T08:14:20.794Z,100122.50
2023-01-19T08:16:50.774Z,100125.16
2023-01-19T08:19:21.155Z,100127.81
2023-01-19T08:21:51.192Z,100131.59
2023-01-19T08:24:23.108Z,100144.69
2023-01-19T08:26:53.269Z,100137.97
2023-01-19T08:29:25.678Z,100136.66
2023-01-19T08:31:57.572Z,100147.88
2023-01-19T08:34:27.593Z,100148.41
2023-01-19T08:36:57.364Z,100146.00
2023-01-19T08:39:27.609Z,100150.56
2023-01-19T08:42:00.540Z,100152.97
2023-01-19T08:44:32.945Z,100170.91
2023-01-19T08:47:05.944Z,100175.75
2023-01-19T08:49:37.002Z,100180.53
2023-01-19T08:52:06.933Z,100180.53
2023-01-19T08:54:37.261Z,100180.00
2023-01-19T08:57:07.061Z,100185.88
2023-01-19T08:59:39.455Z,100188.03
2023-01-19T09:02:10.032Z,100192.31
2023-01-19T09:04:39.976Z,100197.13
2023-01-19T09:07:09.751Z,100194.97
2023-01-19T09:09:43.528Z,100195.22
2023-01-19T09:12:13.318Z,100200.00
2023-01-19T09:14:45.786Z,100202.44
2023-01-19T09:17:15.668Z,100210.50
2023-01-19T09:19:45.452Z,100213.16
2023-01-19T09:22:15.432Z,100220.13
2023-01-19T09:24:45.191Z,100228.69
2023-01-19T09:27:16.004Z,100217.97
2023-01-19T09:29:52.553Z,100214.19
2023-01-19T09:32:23.041Z,100221.16
2023-01-19T09:34:54.020Z,100221.97
2023-01-19T09:37:24.115Z,100234.03
2023-01-19T09:39:53.886Z,100229.69
2023-01-19T09:42:30.344Z,100221.13
2023-01-19T09:45:05.723Z,100231.28
2023-01-19T09:47:37.991Z,100238.53
2023-01-19T09:50:13.502Z,100238.22
2023-01-19T09:52:46.651Z,100243.06
2023-01-19T09:55:24.604Z,100255.13
2023-01-19T09:57:54.745Z,100257.00
2023-01-19T10:00:29.640Z,100266.63
2023-01-19T10:03:07.317Z,100265.59
2023-01-19T10:05:44.928Z,100276.34
2023-01-19T10:08:22.257Z,100276.34
2023-01-19T10:10:56.656Z,100280.63
2023-01-19T10:13:36.528Z,100278.50
2023-01-19T10:16:20.091Z,100268.81
2023-01-19T10:18:51.872Z,100273.09
2023-01-19T10:21:26.298Z,100279.22
2023-01-19T10:24:00.046Z,100277.34
2023-01-19T10:26:36.452Z,100273.88
2023-01-19T10:29:11.609Z,100270.38
2023-01-19T10:31:49.646Z,100278.38
2023-01-19T10:34:23.549Z,100272.69
2023-01-19T10:37:00.075Z,100268.13
2023-01-19T10:39:29.947Z,100276.41
2023-01-19T10:42:03.689Z,100282.00
2023-01-19T10:44:40.078Z,100279.03
2023-01-19T10:47:19.334Z,100284.66
2023-01-19T10:49:50.791Z,100284.09
2023-01-19T10:52:30.109Z,100275.50
2023-01-19T10:55:04.296Z,100280.03
2023-01-19T10:57:40.047Z,100279.19
2023-01-19T11:00:37.997Z,100279.19
2023-01-19T11:03:28.851Z,100286.16
2023-01-19T11:06:21.621Z,100287.72
2023-01-19T11:08:54.881Z,100292.53
2023-01-19T11:11:29.764Z,100294.16
2023-01-19T11:14:12.961Z,100295.25
2023-01-19T11:16:43.399Z,100299.25
2023-01-19T11:19:27.777Z,100297.16
2023-01-19T11:22:12.966Z,100296.34
2023-01-19T11:24:43.277Z,100296.28
2023-01-19T11:27:14.617Z,100298.75
2023-01-19T11:29:51.095Z,100297.66
2023-01-19T11:32:26.928Z,100299.84
2023-01-19T11:35:00.099Z,100301.16
2023-01-19T11:37:34.813Z,100299.53
2023-01-19T11:40:12.554Z,100295.75
2023-01-19T11:42:44.995Z,100302.72
2023-01-19T11:45:20.571Z,100308.59
2023-01-19T11:47:52.939Z,100305.38
2023-01-19T11:50:32.076Z,100311.25
2023-01-19T11:53:08.533Z,100310.16
2023-01-19T11:55:43.189Z,100306.91
2023-01-19T11:58:17.067Z,100307.44
2023-01-19T12:00:51.438Z,100304.22
2023-01-19T12:03:26.799Z,100304.28
2023-01-19T12:06:06.292Z,100305.84
2023-01-19T12:08:39.869Z,100310.75
2023-01-19T12:11:13.596Z,100307.44
2023-01-19T12:13:47.374Z,100307.19
2023-01-19T12:16:24.044Z,100304.28
2023-01-19T12:19:00.152Z,100303.69
2023-01-19T12:21:32.528Z,100302.28
2023-01-19T12:24:16.420Z,100294.38
2023-01-19T12:26:56.486Z,100296.44
2023-01-19T12:29:30.441Z,100301.25
2023-01-19T12:32:22.535Z,100300.22
2023-01-19T12:34:53.107Z,100299.63
2023-01-19T12:37:43.024Z,100305.13
2023-01-19T12:40:35.439Z,100304.59
2023-01-19T12:43:09.662Z,100308.34
2023-01-19T12:45:40.732Z,100310.47
2023-01-19T12:48:27.293Z,100306.75
2023-01-19T12:50:57.430Z,100314.78
2023-01-19T12:53:31.006Z,100314.78
2023-01-19T12:56:02.882Z,100320.09
2023-01-19T12:58:34.709Z,100321.13
2023-01-19T13:01:19.956Z,100319.81
2023-01-19T13:04:02.339Z,100321.44
2023-01-19T13:07:05.896Z,100317.47
2023-01-19T13:09:43.372Z,100318.50
2023-01-19T13:12:29.054Z,100313.69
2023-01-19T13:15:28.831Z,100309.91
2023-01-19T13:17:59.620Z,100309.59
2023-01-19T13:20:32.396Z,100314.63
2023-01-19T13:23:21.896Z,100313.03
2023-01-19T13:25:57.645Z,100304.94
2023-01-19T13:28:37.910Z,100312.91
2023-01-19T13:31:10.142Z,100307.53
2023-01-19T13:33:51.140Z,100311.88
2023-01-19T13:36:30.808Z,100318.25
2023-01-19T13:39:03.593Z,100314.81
2023-01-19T13:41:40.406Z,100315.59
2023-01-19T13:44:15.981Z,100317.50
2023-01-19T13:46:49.738Z,100319.91
2023-01-19T13:49:29.380Z,100324.75
2023-01-19T13:52:18.664Z,100326.44
2023-01-19T13:54:53.252Z,100331.22
2023-01-19T13:57:33.126Z,100332.34
2023-01-19T14:00:18.997Z,100346.88
2023-01-19T14:03:00.771Z,100344.22
2023-01-19T14:05:34.387Z,100349.59
2023-01-19T14:08:07.044Z,100348.00
2023-01-19T14:10:38.009Z,100350.38
2023-01-19T14:13:18.928Z,100346.38
2023-01-19T14:15:50.578Z,100352.22
2023-01-19T14:18:30.200Z,100356.00
2023-01-19T14:21:06.266Z,100354.41
2023-01-19T14:23:43.145Z,100359.22
2023-01-19T14:26:45.101Z,100358.66
2023-01-19T14:29:28.945Z,100368.81
2023-01-19T14:32:17.577Z,100362.91
2023-01-19T14:34:53.901Z,100366.63
2023-01-19T14:37:28.914Z,100369.31
2023-01-19T14:40:04.856Z,100372.78
2023-01-19T14:42:40.340Z,100372.25
2023-01-19T14:45:23.147Z,100370.91
2023-01-19T14:47:59.857Z,100377.88
2023-01-19T14:50:33.188Z,100376.28
2023-01-19T14:53:06.481Z,100379.75
2023-01-19T14:55:39.448Z,100379.50
2023-01-19T14:58:13.955Z,100379.53
2023-01-19T15:00:47.431Z,100377.94
2023-01-19T15:03:17.651Z,100375.25
2023-01-19T15:05:49.825Z,100375.78
2023-01-19T15:08:22.699Z,100380.63
2023-01-19T15:10:52.736Z,100384.16
2023-01-19T15:13:25.689Z,100377.97
2023-01-19T15:15:58.527Z,100390.63
2023-01-19T15:18:30.355Z,100394.66
2023-01-19T15:21:03.100Z,100393.84
2023-01-19T15:23:36.701Z,100389.34
2023-01-19T15:26:08.172Z,100396.03
2023-01-19T15:28:38.405Z,100395.78
2023-01-19T15:31:16.657Z,100397.94
2023-01-19T15:33:47.154Z,100407.06
2023-01-19T15:36:18.393Z,100399.34
2023-01-19T15:38:50.432Z,100398.78
2023-01-19T15:41:25.554Z,100402.03
2023-01-19T15:43:55.744Z,100414.38
2023-01-19T15:46:28.962Z,100407.16
2023-01-19T15:49:02.169Z,100422.47
2023-01-19T15:51:32.935Z,100414.13
2023-01-19T15:54:02.849Z,100423.81
2023-01-19T15:56:34.620Z,100422.84
2023-01-19T15:59:05.464Z,100433.56
2023-01-19T16:01:38.244Z,100433.03
2023-01-19T16:04:11.184Z,100439.50
2023-01-19T16:06:41.624Z,100434.72
2023-01-19T16:09:17.067Z,100449.75
2023-01-19T16:11:47.413Z,100443.88
2023-01-19T16:14:17.639Z,100450.34
2023-01-19T16:16:50.517Z,100451.97
2023-01-19T16:19:20.408Z,100446.84
2023-01-19T16:21:50.126Z,100454.34
2023-01-19T16:24:19.885Z,100460.56
2023-01-19T16:26:49.610Z,100458.94
2023-01-19T16:29:19.440Z,100457.31
2023-01-19T16:31:52.303Z,100458.13
2023-01-19T16:34:23.602Z,100459.00
2023-01-19T16:36:53.494Z,100471.84
2023-01-19T16:39:23.598Z,100466.22
2023-01-19T16:41:53.380Z,100482.03
2023-01-19T16:44:23.144Z,100474.00
2023-01-19T16:46:55.704Z,100476.69
2023-01-19T16:49:28.538Z,100479.34
2023-01-19T16:51:59.511Z,100488.72
2023-01-19T16:54:31.269Z,100485.75
2023-01-19T16:57:01.949Z,100481.75
2023-01-19T16:59:31.888Z,100492.72
2023-01-19T17:02:04.542Z,100483.06
2023-01-19T17:04:34.387Z,100488.44
2023-01-19T17:07:04.398Z,100488.44
2023-01-19T17:09:34.542Z,100492.19
2023-01-19T17:12:04.333Z,100494.38
2023-01-19T17:14:34.231Z,100488.19
2023-01-19T17:17:09.744Z,100495.69
2023-01-19T17:19:40.270Z,100494.09
2023-01-19T17:22:10.019Z,100498.66
2023-01-19T17:24:42.621Z,100500.84
2023-01-19T17:27:13.415Z,100496.56
2023-01-19T17:29:43.286Z,100502.19
2023-01-19T17:32:15.600Z,100508.91
2023-01-19T17:34:46.787Z,100505.13
2023-01-19T17:37:16.624Z,100508.59
2023-01-19T17:39:46.404Z,100509.97
2023-01-19T17:42:16.198Z,100510.50
2023-01-19T17:44:45.951Z,100502.44
2023-01-19T17:47:24.750Z,100508.91
2023-01-19T17:49:55.188Z,100504.59
2023-01-19T17:52:25.102Z,100512.66
2023-01-19T17:54:55.013Z,100514.81
2023-01-19T17:57:24.822Z,100518.59
2023-01-19T17:59:54.774Z,100518.59
2023-01-19T18:02:27.345Z,100520.19
2023-01-19T18:04:59.369Z,100523.38
2023-01-19T18:07:29.173Z,100518.03
2023-01-19T18:10:01.046Z,100530.34
2023-01-19T18:12:31.589Z,100518.03
2023-01-19T18:15:01.460Z,100522.88
2023-01-19T18:17:34.128Z,100524.47
2023-01-19T18:20:04.837Z,100526.63
2023-01-19T18:22:35.304Z,100533.63
2023-01-19T18:25:05.264Z,100531.22
2023-01-19T18:27:35.357Z,100521.56
2023-01-19T18:30:05.150Z,100528.53
2023-01-19T18:32:38.664Z,100526.66
2023-01-19T18:35:11.142Z,100527.72
2023-01-19T18:37:41.028Z,100525.31
2023-01-19T18:40:12.830Z,100527.16
2023-01-19T18:42:43.544Z,100526.13
2023-01-19T18:45:14.353Z,100532.53
2023-01-19T18:47:47.104Z,100534.69
2023-01-19T18:50:17.194Z,100537.09
2023-01-19T18:52:51.625Z,100532.53
2023-01-19T18:55:21.618Z,100535.25
2023-01-19T18:57:53.228Z,100544.09
2023-01-19T19:00:23.931Z,100535.25
2023-01-19T19:02:57.888Z,100542.75
2023-01-19T19:05:28.128Z,100547.59
2023-01-19T19:07:58.125Z,100547.59
2023-01-19T19:10:28.135Z,100549.19
2023-01-19T19:12:58.218Z,100547.59
2023-01-19T19:15:28.399Z,100544.91
2023-01-19T19:18:01.407Z,100550.78
2023-01-19T19:20:31.302Z,100550.78
2023-01-19T19:23:01.587Z,100550.78
2023-01-19T19:25:31.459Z,100554.28
2023-01-19T19:28:01.672Z,100557.78
2023-01-19T19:30:33.023Z,100558.88
2023-01-19T19:33:05.582Z,100554.59
2023-01-19T19:35:35.519Z,100559.97
2023-01-19T19:38:08.033Z,100563.16
2023-01-19T19:40:37.978Z,100560.47
2023-01-19T19:43:08.935Z,100563.16
2023-01-19T19:45:39.169Z,100568.53
2023-01-19T19:48:11.768Z,100566.66
2023-01-19T19:50:41.626Z,100571.75
2023-01-19T19:53:14.503Z,100571.75
2023-01-19T19:55:47.078Z,100576.84
2023-01-19T19:58:17.233Z,100574.44
2023-01-19T20:00:51.758Z,100577.66
2023-01-19T20:03:24.582Z,100577.13
2023-01-19T20:05:54.462Z,100575.00
2023-01-19T20:08:24.541Z,100581.97
2023-01-19T20:10:54.559Z,100583.84
2023-01-19T20:13:25.576Z,100584.63
2023-01-19T20:15:56.017Z,100584.13
2023-01-19T20:18:28.784Z,100584.34
2023-01-19T20:20:58.752Z,100589.47
2023-01-19T20:23:30.829Z,100593.22
2023-01-19T20:26:00.885Z,100592.44
2023-01-19T20:28:30.606Z,100586.25
2023-01-19T20:31:11.453Z,100591.63
2023-01-19T20:33:46.282Z,100595.91
2023-01-19T20:36:17.767Z,100598.06
2023-01-19T20:38:50.336Z,100599.13
2023-01-19T20:41:21.162Z,100605.53
2023-01-19T20:43:51.349Z,100608.22
2023-01-19T20:46:21.520Z,100617.59
2023-01-19T20:48:54.874Z,100619.47
2023-01-19T20:51:26.927Z,100628.59
2023-01-19T20:53:56.957Z,100630.75
2023-01-19T20:56:26.901Z,100631.78
2023-01-19T20:58:58.950Z,100635.00
2023-01-19T21:01:31.978Z,100635.00
2023-01-19T21:04:04.468Z,100638.22
2023-01-19T21:06:36.514Z,100640.38
2023-01-19T21:09:07.090Z,100654.00
2023-01-19T21:11:40.858Z,100659.91
2023-01-19T21:14:14.030Z,100659.91
2023-01-19T21:16:44.371Z,100667.66
2023-01-19T21:19:17.997Z,100674.06
2023-01-19T21:21:47.729Z,100672.19
2023-01-19T21:24:17.560Z,100674.06
2023-01-19T21:26:47.325Z,100676.19
2023-01-19T21:29:21.589Z,100682.06
2023-01-19T21:31:51.407Z,100682.06
2023-01-19T21:34:31.204Z,100687.16
2023-01-19T21:37:03.848Z,100690.63
2023-01-19T21:39:33.628Z,100697.06
2023-01-19T21:42:03.591Z,100694.38
2023-01-19T21:44:33.427Z,100705.31
2023-01-19T21:47:03.200Z,100705.06
2023-01-19T21:49:35.717Z,100713.06
2023-01-19T21:52:05.573Z,100710.66
2023-01-19T21:54:37.893Z,100710.91
2023-01-19T21:57:09.623Z,100719.44
2023-01-19T21:59:39.465Z,100714.34
2023-01-19T22:02:09.677Z,100711.41
2023-01-19T22:04:42.352Z,100722.09
2023-01-19T22:07:14.197Z,100711.88
2023-01-19T22:09:44.006Z,100722.03
2023-01-19T22:12:13.714Z,100726.31
2023-01-19T22:14:46.918Z,100720.97
2023-01-19T22:17:17.339Z,100726.31
2023-01-19T22:19:51.800Z,100726.31
2023-01-19T22:22:21.582Z,100730.81
2023-01-19T22:24:55.869Z,100724.63
2023-01-19T22:27:25.626Z,100732.59
2023-01-19T22:29:55.537Z,100733.13
2023-01-19T22:32:25.295Z,100731.22
2023-01-19T22:34:58.923Z,100729.06
2023-01-19T22:37:28.674Z,100725.53
2023-01-19T22:39:58.441Z,100728.75
2023-01-19T22:42:28.618Z,100731.91
2023-01-19T22:44:58.542Z,100736.97
2023-01-19T22:47:31.032Z,100747.41
2023-01-19T22:50:03.791Z,100752.25
2023-01-19T22:52:33.583Z,100753.34
2023-01-19T22:55:08.357Z,100748.28
2023-01-19T22:57:38.453Z,100756.09
2023-01-19T23:00:13.328Z,100763.53
2023-01-19T23:02:43.113Z,100756.56
2023-01-19T23:05:16.321Z,100761.94
2023-01-19T23:07:46.465Z,100764.06
2023-01-19T23:10:16.546Z,100764.06
2023-01-19T23:12:48.756Z,100762.44
2023-01-19T23:15:18.678Z,100763.75
2023-01-19T23:17:52.977Z,100767.50
2023-01-19T23:20:30.760Z,100765.06
2023-01-19T23:23:00.643Z,100770.75
2023-01-19T23:25:30.403Z,100776.91
2023-01-19T23:28:01.000Z,100767.28
2023-01-19T23:30:30.836Z,100771.34
2023-01-19T23:33:01.026Z,100782.31
2023-01-19T23:35:33.710Z,100774.84
2023-01-19T23:38:03.764Z,100779.13
2023-01-19T23:40:33.546Z,100783.44
2023-01-19T23:43:03.437Z,100782.38
2023-01-19T23:45:37.225Z,100781.31
2023-01-19T23:48:07.589Z,100778.63
2023-01-19T23:50:42.584Z,100784.53
2023-01-19T23:53:14.757Z,100787.75
2023-01-19T23:55:44.852Z,100786.69
2023-01-19T23:58:14.635Z,100789.38
